Joelle — 9HWR8 — position and weather

sailwx.info

Track history (hours):
 
Tides and Currents Weather Stations Pressure Air Temp Water Temp Dewpoint Dewpoint Depression Visibility Wind Speed Wind Dir Waves Ship Positions

Joelle

Last reported at 2018-May-25 18:35 UTC. Time now 2018-Jun-21 21:58 UTC.
Position N 34°20' E 034°52'.
Warning: this ship's position is 27 days out of date.

Length 108 m; draft 4.1 m.

MMSI: 256534000.

Date/timePositionNaut miles runAvg speedWind from/ knotsBaromVisibWave heightAir tempDewpointWater temp
2018-May-25 18:35N 34°20' E 034°52'111.8
2018-May-25 18:30N 34°20' E 034°53'811.7
2018-May-25 17:49N 34°20' E 035°03'  
2018-May-23 10:10N 33°05' E 033°13'210.2
2018-May-23 10:00N 33°04' E 033°11'510.3
2018-May-23 09:30N 33°01' E 033°06'510.3
2018-May-23 09:00N 32°58' E 033°01'510.3
2018-May-23 08:30N 32°55' E 032°56'910.0
2018-May-23 07:35N 32°49' E 032°47'75 9.7
2018-May-22 23:51N 31°59' E 031°41'5 9.9
2018-May-22 23:23N 31°54' E 031°41'4 9.9
2018-May-22 23:01N 31°50' E 031°42'  
2018-May-20 10:48N 31°32' E 031°46'0 0.3
2018-May-20 10:30N 31°32' E 031°46'4 0.2
2018-May-19 10:13N 31°36' E 031°45'0 0.0
2018-May-19 09:58N 31°36' E 031°45'0 0.0
2018-May-19 09:25N 31°36' E 031°45'0 0.0
2018-May-19 08:58N 31°36' E 031°45'0 0.0
2018-May-19 08:28N 31°36' E 031°45'0 0.0
2018-May-19 07:58N 31°36' E 031°45'2 0.5
2018-May-19 03:24N 31°39' E 031°45'2 5.1
2018-May-19 02:58N 31°36' E 031°45'0 0.0
2018-May-18 20:50N 31°36' E 031°45'1 0.2
2018-May-18 17:45N 31°37' E 031°46'1 0.8
2018-May-18 17:00N 31°36' E 031°45'0 0.0
2018-May-18 15:39N 31°36' E 031°45'0 1.4
2018-May-18 15:30N 31°36' E 031°45'0 0.1
2018-May-18 14:10N 31°36' E 031°45'0 0.0
2018-May-17 02:42N 31°36' E 031°45'0 0.0
2018-May-17 01:42N 31°36' E 031°45'0 0.0
2018-May-17 01:30N 31°36' E 031°45'0 0.0
2018-May-17 01:00N 31°36' E 031°45'0 0.0
2018-May-16 14:43N 31°36' E 031°45'0 0.0
2018-May-16 14:28N 31°36' E 031°45'  
Track history (hours):
 
Tides and Currents Weather Stations Pressure Air Temp Water Temp Dewpoint Dewpoint Depression Visibility Wind Speed Wind Dir Waves Ship Positions

Joelle

Last reported at 2018-May-25 18:35 UTC. Time now 2018-Jun-21 21:58 UTC.
Position N 34°20' E 034°52'.
Warning: this ship's position is 27 days out of date.

Length 108 m; draft 4.1 m.

MMSI: 256534000.

Date/timePositionNaut miles runAvg speedWind from/ knotsBaromVisibWave heightAir tempDewpointWater temp
2018-May-25 18:35N 34°20' E 034°52'111.8
2018-May-25 18:30N 34°20' E 034°53'811.7
2018-May-25 17:49N 34°20' E 035°03'  
2018-May-23 10:10N 33°05' E 033°13'210.2
2018-May-23 10:00N 33°04' E 033°11'510.3
2018-May-23 09:30N 33°01' E 033°06'510.3
2018-May-23 09:00N 32°58' E 033°01'510.3
2018-May-23 08:30N 32°55' E 032°56'910.0
2018-May-23 07:35N 32°49' E 032°47'75 9.7
2018-May-22 23:51N 31°59' E 031°41'5 9.9
2018-May-22 23:23N 31°54' E 031°41'4 9.9
2018-May-22 23:01N 31°50' E 031°42'  
2018-May-20 10:48N 31°32' E 031°46'0 0.3
2018-May-20 10:30N 31°32' E 031°46'4 0.2
2018-May-19 10:13N 31°36' E 031°45'0 0.0
2018-May-19 09:58N 31°36' E 031°45'0 0.0
2018-May-19 09:25N 31°36' E 031°45'0 0.0
2018-May-19 08:58N 31°36' E 031°45'0 0.0
2018-May-19 08:28N 31°36' E 031°45'0 0.0
2018-May-19 07:58N 31°36' E 031°45'2 0.5
2018-May-19 03:24N 31°39' E 031°45'2 5.1
2018-May-19 02:58N 31°36' E 031°45'0 0.0
2018-May-18 20:50N 31°36' E 031°45'1 0.2
2018-May-18 17:45N 31°37' E 031°46'1 0.8
2018-May-18 17:00N 31°36' E 031°45'0 0.0
2018-May-18 15:39N 31°36' E 031°45'0 1.4
2018-May-18 15:30N 31°36' E 031°45'0 0.1
2018-May-18 14:10N 31°36' E 031°45'0 0.0
2018-May-17 02:42N 31°36' E 031°45'0 0.0
2018-May-17 01:42N 31°36' E 031°45'0 0.0
2018-May-17 01:30N 31°36' E 031°45'0 0.0
2018-May-17 01:00N 31°36' E 031°45'0 0.0
2018-May-16 14:43N 31°36' E 031°45'0 0.0
2018-May-16 14:28N 31°36' E 031°45'  

Dump ship's entire track history